Time;durP1;ratioP1;P1;durP2;ratioP2;P2;SDS_P1;SDS_P2;PMS_P1;PMS_P2;Temp;Humidity;BMP_temperature;BMP_pressure;BME280_temperature;BME280_humidity;BME280_pressure;Samples;Min_cycle;Max_cycle;Signal;HPM_P1;HPM_P2
2021/08/25 00:00:28;;;;;;;16.00;11.73;;;14.50;99.90;;;;;;6157624;23;20047;-87
2021/08/25 00:02:54;;;;;;;17.00;11.98;;;14.40;99.90;;;;;;6181254;23;20111;-88
2021/08/25 00:05:20;;;;;;;22.50;13.52;;;14.40;99.90;;;;;;6230975;23;20050;-87
2021/08/25 00:07:45;;;;;;;19.60;13.82;;;14.40;99.90;;;;;;6155590;23;20395;-87
2021/08/25 00:10:11;;;;;;;17.70;14.05;;;14.40;99.90;;;;;;6130899;23;20027;-88
2021/08/25 00:12:38;;;;;;;19.40;14.32;;;14.40;99.90;;;;;;6156971;23;20093;-88
2021/08/25 00:15:06;;;;;;;20.20;13.23;;;14.40;99.90;;;;;;6160114;23;20528;-87
2021/08/25 00:17:32;;;;;;;21.77;14.30;;;14.40;99.90;;;;;;6184830;23;20487;-87
2021/08/25 00:19:57;;;;;;;20.30;14.13;;;14.30;99.90;;;;;;6210543;23;20067;-88
2021/08/25 00:22:23;;;;;;;21.77;14.70;;;14.30;99.90;;;;;;6134396;23;20012;-88
2021/08/25 00:24:50;;;;;;;18.90;15.00;;;14.30;99.90;;;;;;6182645;23;20023;-88
2021/08/25 00:27:16;;;;;;;20.30;14.75;;;14.30;99.90;;;;;;6182688;23;20052;-88
2021/08/25 00:29:41;;;;;;;21.75;14.05;;;14.30;99.90;;;;;;6159125;23;20067;-88
2021/08/25 00:32:07;;;;;;;20.35;15.48;;;14.30;99.90;;;;;;6180942;23;20023;-88
2021/08/25 00:34:33;;;;;;;19.67;13.35;;;14.30;99.90;;;;;;6134798;23;20008;-89
2021/08/25 00:36:59;;;;;;;26.77;16.17;;;14.30;99.90;;;;;;6183665;23;20070;-87
2021/08/25 00:39:25;;;;;;;25.25;16.60;;;14.20;99.90;;;;;;6155577;23;20047;-88
2021/08/25 00:41:50;;;;;;;26.25;16.33;;;14.20;99.90;;;;;;6135108;23;20016;-87
2021/08/25 00:44:17;;;;;;;25.10;17.45;;;14.20;99.90;;;;;;6131159;23;20016;-88
2021/08/25 00:46:44;;;;;;;24.60;16.48;;;14.20;99.90;;;;;;6158029;23;20020;-88
2021/08/25 00:49:16;;;;;;;23.98;15.60;;;14.20;99.90;;;;;;6161572;23;20333;-88
2021/08/25 00:51:44;;;;;;;27.08;18.67;;;14.20;99.90;;;;;;6162168;23;20433;-88
2021/08/25 00:54:09;;;;;;;25.42;17.95;;;14.10;99.90;;;;;;6162766;23;20008;-89
2021/08/25 00:56:35;;;;;;;22.67;18.17;;;14.10;99.90;;;;;;6188743;23;20018;-89
2021/08/25 00:59:01;;;;;;;21.23;18.23;;;14.10;99.90;;;;;;6137999;23;20012;-88
2021/08/25 01:01:46;;;;;;;26.20;19.48;;;14.10;99.90;;;;;;6139036;23;20487;-88
2021/08/25 01:04:32;;;;;;;25.23;18.83;;;14.10;99.90;;;;;;6187956;23;20047;-88
2021/08/25 01:06:58;;;;;;;27.15;20.25;;;14.10;99.90;;;;;;6209950;23;20016;-88
2021/08/25 01:09:24;;;;;;;26.45;19.45;;;14.00;99.90;;;;;;6164053;23;20016;-89
2021/08/25 01:11:52;;;;;;;28.02;20.67;;;14.00;99.90;;;;;;6136631;23;20012;-88
2021/08/25 01:14:18;;;;;;;28.23;20.27;;;14.00;99.90;;;;;;6133649;23;20582;-88
2021/08/25 01:16:46;;;;;;;27.92;22.50;;;14.00;99.90;;;;;;6183860;23;20022;-88
2021/08/25 01:19:19;;;;;;;30.92;23.10;;;14.00;99.90;;;;;;6163056;23;20016;-89
2021/08/25 01:21:47;;;;;;;29.42;21.92;;;14.00;99.90;;;;;;6163327;23;20340;-88
2021/08/25 01:24:15;;;;;;;29.48;22.30;;;13.90;99.90;;;;;;6161836;23;20012;-88
2021/08/25 01:26:43;;;;;;;30.25;22.05;;;13.90;99.90;;;;;;6188696;23;20016;-88
2021/08/25 01:29:35;;;;;;;31.23;24.15;;;13.90;99.90;;;;;;6163140;23;20562;-88
2021/08/25 01:32:00;;;;;;;32.80;25.27;;;13.90;99.90;;;;;;6154748;23;20024;-88
2021/08/25 01:34:26;;;;;;;35.17;25.52;;;13.90;99.90;;;;;;6136164;23;20008;-88
2021/08/25 01:36:53;;;;;;;35.78;25.55;;;13.90;99.90;;;;;;6138046;23;20012;-88
2021/08/25 01:39:20;;;;;;;33.42;24.77;;;13.90;99.90;;;;;;6160655;23;20402;-89
2021/08/25 01:41:49;;;;;;;32.95;23.98;;;13.90;99.90;;;;;;6182032;23;20081;-88
2021/08/25 01:44:16;;;;;;;36.70;26.08;;;13.90;99.90;;;;;;6182245;23;20070;-88
2021/08/25 01:46:42;;;;;;;35.88;24.73;;;13.80;99.90;;;;;;6184266;23;20012;-88
2021/08/25 01:49:12;;;;;;;34.90;25.98;;;13.90;99.90;;;;;;6159930;23;20333;-88
2021/08/25 01:51:40;;;;;;;29.73;22.83;;;13.90;99.90;;;;;;6161318;23;20020;-88
2021/08/25 01:54:07;;;;;;;36.92;26.92;;;13.90;99.90;;;;;;6184363;23;20026;-88
2021/08/25 01:56:33;;;;;;;33.28;25.48;;;13.90;99.90;;;;;;6136499;23;20012;-88
2021/08/25 01:59:00;;;;;;;38.33;27.48;;;13.90;99.90;;;;;;6186455;23;20073;-88
2021/08/25 02:01:26;;;;;;;36.97;27.58;;;13.90;99.90;;;;;;6185371;23;20015;-89
2021/08/25 02:03:52;;;;;;;36.00;27.02;;;13.90;99.90;;;;;;6137159;23;20369;-88
2021/08/25 02:06:17;;;;;;;35.97;26.20;;;13.80;99.90;;;;;;6140261;23;20023;-88
2021/08/25 02:08:43;;;;;;;31.02;24.63;;;13.80;99.90;;;;;;6140938;23;20022;-89
2021/08/25 02:11:09;;;;;;;37.45;26.45;;;13.80;99.90;;;;;;6187656;23;20097;-89
2021/08/25 02:13:35;;;;;;;34.83;26.27;;;13.80;99.90;;;;;;6160056;23;20015;-88
2021/08/25 02:16:01;;;;;;;34.17;26.70;;;13.80;99.90;;;;;;6186712;23;20012;-88
2021/08/25 02:18:26;;;;;;;37.83;28.27;;;13.80;99.90;;;;;;6136492;23;20343;-87
2021/08/25 02:20:52;;;;;;;39.08;27.95;;;13.80;99.90;;;;;;6185969;23;20019;-88
2021/08/25 02:23:18;;;;;;;40.63;28.48;;;13.80;99.90;;;;;;6160833;23;20099;-88
2021/08/25 02:25:44;;;;;;;44.13;31.80;;;13.80;99.90;;;;;;6160395;23;20016;-87
2021/08/25 02:28:09;;;;;;;44.38;31.95;;;13.80;99.90;;;;;;6158688;23;20030;-88
2021/08/25 02:30:35;;;;;;;35.53;27.63;;;13.80;99.90;;;;;;6189317;23;20023;-87
2021/08/25 02:33:01;;;;;;;28.10;21.95;;;13.70;99.90;;;;;;6171165;23;20016;-89
2021/08/25 02:35:27;;;;;;;32.33;24.92;;;13.70;99.90;;;;;;6196325;23;20013;-87
2021/08/25 02:37:53;;;;;;;34.65;26.23;;;13.70;99.90;;;;;;6150134;23;20012;-87
2021/08/25 02:40:18;;;;;;;34.58;24.63;;;13.70;99.90;;;;;;6201606;23;20449;-88
2021/08/25 02:42:44;;;;;;;16.88;13.18;;;13.60;99.90;;;;;;6182406;23;20012;-88
2021/08/25 02:45:10;;;;;;;13.45;10.55;;;13.60;99.90;;;;;;6208463;23;20016;-87
2021/08/25 02:47:36;;;;;;;13.05;9.98;;;13.50;99.90;;;;;;6204693;23;20075;-88
2021/08/25 02:50:03;;;;;;;15.02;10.95;;;13.40;99.90;;;;;;6176752;23;20012;-89
2021/08/25 02:52:29;;;;;;;13.90;11.27;;;13.30;99.90;;;;;;6197566;23;20012;-87
2021/08/25 02:54:55;;;;;;;14.75;10.23;;;13.10;99.90;;;;;;6175368;23;20058;-89
2021/08/25 02:57:21;;;;;;;15.98;11.45;;;13.10;99.90;;;;;;6154426;23;20016;-89
2021/08/25 02:59:46;;;;;;;16.75;12.35;;;13.00;99.90;;;;;;6154948;23;20012;-88
2021/08/25 03:02:12;;;;;;;12.02;10.35;;;12.90;99.90;;;;;;6201452;23;20043;-89
2021/08/25 03:04:38;;;;;;;15.50;11.48;;;12.90;99.90;;;;;;6151610;23;20231;-89
2021/08/25 03:07:03;;;;;;;16.70;11.30;;;12.80;99.90;;;;;;6173598;23;20019;-87
2021/08/25 03:09:29;;;;;;;14.75;11.68;;;12.80;99.90;;;;;;6174065;23;20075;-88
2021/08/25 03:11:56;;;;;;;18.05;12.05;;;12.70;99.90;;;;;;6144215;23;20445;-88
2021/08/25 03:14:22;;;;;;;18.70;13.20;;;12.70;99.90;;;;;;6173752;23;20398;-88
2021/08/25 03:16:47;;;;;;;15.88;12.32;;;12.70;99.90;;;;;;6146635;23;20015;-88
2021/08/25 03:19:13;;;;;;;20.98;14.32;;;12.70;99.90;;;;;;6174876;23;20019;-89
2021/08/25 03:21:41;;;;;;;18.17;13.63;;;12.70;99.90;;;;;;6148690;23;20043;-89
2021/08/25 03:24:10;;;;;;;17.65;13.20;;;12.70;99.90;;;;;;6178317;23;20043;-89
2021/08/25 03:26:37;;;;;;;18.13;12.98;;;12.70;99.90;;;;;;6150437;23;20034;-89
2021/08/25 03:29:03;;;;;;;17.45;12.43;;;12.70;99.90;;;;;;6203046;23;20049;-89
2021/08/25 03:31:29;;;;;;;19.90;12.43;;;12.60;99.90;;;;;;6195626;23;20048;-89
2021/08/25 03:33:55;;;;;;;18.75;12.35;;;12.60;99.90;;;;;;6200798;23;20016;-88
2021/08/25 03:36:21;;;;;;;20.35;13.95;;;12.60;99.90;;;;;;6149090;23;20088;-88
2021/08/25 03:38:47;;;;;;;20.60;13.38;;;12.50;99.90;;;;;;6198942;23;20090;-88
2021/08/25 03:41:13;;;;;;;21.20;13.07;;;12.50;99.90;;;;;;6196341;23;20047;-89
2021/08/25 03:43:39;;;;;;;27.02;14.20;;;12.50;99.90;;;;;;6196948;23;20016;-88
2021/08/25 03:46:04;;;;;;;23.02;13.43;;;12.50;99.90;;;;;;6149343;23;20186;-89
2021/08/25 03:48:30;;;;;;;25.30;15.30;;;12.50;99.90;;;;;;6172716;23;20335;-89
2021/08/25 03:50:56;;;;;;;34.47;17.02;;;12.50;99.90;;;;;;6221405;23;20015;-89
2021/08/25 03:53:22;;;;;;;39.83;16.55;;;12.50;99.90;;;;;;6197009;23;20023;-89
2021/08/25 03:55:47;;;;;;;62.20;21.60;;;12.50;99.90;;;;;;6149152;23;20012;-88
2021/08/25 03:58:13;;;;;;;76.53;26.27;;;12.50;99.90;;;;;;6198996;23;20433;-90
2021/08/25 04:00:39;;;;;;;60.50;22.60;;;12.50;99.90;;;;;;6198438;23;20051;-89
2021/08/25 04:03:05;;;;;;;64.97;26.58;;;12.50;99.90;;;;;;6170739;23;20358;-90
2021/08/25 04:05:30;;;;;;;60.30;24.55;;;12.50;99.90;;;;;;6148046;23;20490;-90
2021/08/25 04:07:56;;;;;;;64.57;26.85;;;12.50;99.90;;;;;;6146052;23;20054;-89
2021/08/25 04:10:22;;;;;;;74.47;30.08;;;12.50;99.90;;;;;;6217867;23;20016;-89
2021/08/25 04:12:47;;;;;;;65.15;26.75;;;12.50;99.90;;;;;;6196746;23;20019;-89
2021/08/25 04:15:13;;;;;;;67.28;26.77;;;12.50;99.90;;;;;;6149552;23;20326;-88
2021/08/25 04:17:39;;;;;;;96.20;27.63;;;12.40;99.90;;;;;;6195168;23;20020;-89
2021/08/25 04:20:05;;;;;;;57.85;26.20;;;12.40;99.90;;;;;;6143740;23;20835;-90
2021/08/25 04:22:31;;;;;;;72.13;26.83;;;12.30;99.90;;;;;;6140279;23;20023;-89
2021/08/25 04:24:57;;;;;;;109.55;28.30;;;12.30;99.90;;;;;;6163560;23;20012;-89
2021/08/25 04:27:23;;;;;;;50.67;25.88;;;12.30;99.90;;;;;;6186507;23;20488;-90
2021/08/25 04:29:49;;;;;;;65.03;27.60;;;12.20;99.90;;;;;;6163354;23;20332;-89
2021/08/25 04:32:15;;;;;;;41.60;24.10;;;12.20;99.90;;;;;;6163787;23;20020;-89
2021/08/25 04:34:42;;;;;;;42.95;23.90;;;12.20;99.90;;;;;;6192634;23;20103;-89
2021/08/25 04:37:07;;;;;;;42.15;24.30;;;12.20;99.90;;;;;;6160030;23;20016;-91
2021/08/25 04:39:33;;;;;;;40.85;24.40;;;12.20;99.90;;;;;;6170287;23;20020;-89
2021/08/25 04:41:59;;;;;;;35.45;21.23;;;12.20;99.90;;;;;;6144020;23;20099;-89
2021/08/25 04:44:25;;;;;;;68.53;22.08;;;12.10;99.90;;;;;;6145503;23;20048;-87
2021/08/25 04:46:51;;;;;;;89.38;25.58;;;12.10;99.90;;;;;;6145490;23;20074;-89
2021/08/25 04:49:16;;;;;;;89.57;22.13;;;12.10;99.90;;;;;;6144709;23;20016;-90
2021/08/25 04:51:42;;;;;;;91.60;20.63;;;12.00;99.90;;;;;;6166314;23;20022;-89
2021/08/25 04:54:08;;;;;;;48.55;21.92;;;12.00;99.90;;;;;;6144144;23;20022;-88
2021/08/25 04:56:33;;;;;;;51.65;23.13;;;12.00;99.90;;;;;;6152286;23;20044;-89
2021/08/25 04:58:59;;;;;;;43.05;22.00;;;12.00;99.90;;;;;;6191875;23;20008;-89
2021/08/25 05:01:25;;;;;;;86.78;27.88;;;12.00;99.90;;;;;;6141020;23;20114;-89
2021/08/25 05:03:51;;;;;;;66.95;23.80;;;12.00;99.90;;;;;;6139510;23;20466;-89
2021/08/25 05:06:17;;;;;;;60.17;26.30;;;12.10;99.90;;;;;;6188230;23;20086;-89
2021/08/25 05:08:43;;;;;;;43.72;27.50;;;12.10;99.90;;;;;;6139677;23;20074;-89
2021/08/25 05:11:10;;;;;;;77.47;29.55;;;12.10;99.90;;;;;;6162706;23;20481;-89
2021/08/25 05:13:37;;;;;;;45.15;23.88;;;12.10;99.90;;;;;;6163949;23;20095;-89
2021/08/25 05:16:09;;;;;;;48.22;24.48;;;12.20;99.90;;;;;;6187330;23;20008;-89
2021/08/25 05:18:34;;;;;;;33.15;23.35;;;12.20;99.90;;;;;;6188152;23;20008;-88
2021/08/25 05:21:00;;;;;;;56.70;24.30;;;12.30;99.90;;;;;;6140701;23;20019;-89
2021/08/25 05:23:26;;;;;;;31.90;20.98;;;12.30;99.90;;;;;;6139206;23;20036;-89
2021/08/25 05:25:52;;;;;;;34.15;23.23;;;12.30;99.90;;;;;;6138980;23;20016;-89
2021/08/25 05:28:18;;;;;;;50.03;18.65;;;12.30;99.90;;;;;;6188418;23;20020;-89
2021/08/25 05:30:43;;;;;;;32.40;22.30;;;12.30;99.90;;;;;;6137653;23;20059;-90
2021/08/25 05:33:09;;;;;;;26.52;20.45;;;12.40;99.90;;;;;;6137990;23;20018;-90
2021/08/25 05:35:35;;;;;;;25.33;19.15;;;12.40;99.90;;;;;;6138856;23;20012;-90
2021/08/25 05:38:01;;;;;;;27.15;21.45;;;12.40;99.90;;;;;;6188175;23;20013;-89
2021/08/25 05:40:26;;;;;;;32.30;21.90;;;12.40;99.90;;;;;;6164178;23;20016;-89
2021/08/25 05:42:52;;;;;;;30.65;20.67;;;12.50;99.90;;;;;;6164985;23;20252;-90
2021/08/25 05:45:18;;;;;;;23.33;17.55;;;12.50;99.90;;;;;;6189558;23;20056;-90
2021/08/25 05:47:44;;;;;;;25.75;18.48;;;12.50;99.90;;;;;;6165090;23;20016;-89
2021/08/25 05:50:10;;;;;;;20.05;16.30;;;12.50;99.90;;;;;;6240999;23;20020;-89
2021/08/25 05:52:36;;;;;;;24.45;18.40;;;12.50;99.90;;;;;;6190883;23;20043;-90
2021/08/25 05:55:03;;;;;;;24.67;18.48;;;12.50;99.90;;;;;;6165970;23;20066;-90
2021/08/25 05:57:29;;;;;;;17.05;14.93;;;12.60;99.90;;;;;;6157260;23;20022;-89
2021/08/25 05:59:55;;;;;;;20.30;16.85;;;12.60;99.90;;;;;;6199705;23;20016;-91
2021/08/25 06:02:21;;;;;;;23.65;17.63;;;12.60;99.90;;;;;;6167510;23;20012;-89
2021/08/25 06:04:47;;;;;;;19.77;16.25;;;12.70;99.90;;;;;;6167118;23;20024;-89
2021/08/25 06:07:13;;;;;;;18.60;16.42;;;12.70;99.90;;;;;;6142059;23;20020;-89
2021/08/25 06:09:38;;;;;;;21.30;16.88;;;12.70;99.90;;;;;;6167993;23;20022;-89
2021/08/25 06:12:04;;;;;;;18.55;15.60;;;12.80;99.90;;;;;;6197892;23;20481;-90
2021/08/25 06:14:30;;;;;;;19.83;15.07;;;12.80;99.90;;;;;;6187825;23;20039;-89
2021/08/25 06:16:57;;;;;;;19.05;16.15;;;12.80;99.90;;;;;;6186959;23;20008;-90
2021/08/25 06:19:23;;;;;;;18.25;15.05;;;12.90;99.90;;;;;;6162113;23;20012;-90
2021/08/25 06:21:49;;;;;;;19.35;15.23;;;12.90;99.90;;;;;;6139158;23;20027;-89
2021/08/25 06:24:15;;;;;;;20.17;17.15;;;13.00;99.90;;;;;;6138497;23;20051;-89
2021/08/25 06:26:41;;;;;;;15.50;13.80;;;13.00;99.90;;;;;;6164138;23;20050;-89
2021/08/25 06:29:08;;;;;;;17.90;15.23;;;13.10;99.90;;;;;;6138762;23;20206;-89
2021/08/25 06:31:34;;;;;;;17.05;12.80;;;13.20;99.90;;;;;;6163128;23;20069;-89
2021/08/25 06:34:00;;;;;;;17.05;13.50;;;13.20;99.90;;;;;;6163174;23;20400;-90
2021/08/25 06:36:26;;;;;;;17.77;14.38;;;13.30;99.90;;;;;;6140045;23;20022;-90
2021/08/25 06:38:52;;;;;;;18.10;15.88;;;13.40;99.90;;;;;;6167109;23;20349;-89
2021/08/25 06:41:19;;;;;;;17.48;15.60;;;13.50;99.90;;;;;;6209900;23;20308;-88
2021/08/25 06:43:44;;;;;;;18.95;16.00;;;13.60;99.90;;;;;;6259928;23;20016;-88
2021/08/25 06:46:10;;;;;;;19.90;14.57;;;13.80;99.90;;;;;;6164311;23;20047;-88
2021/08/25 06:48:36;;;;;;;20.63;16.55;;;13.90;99.90;;;;;;6205346;23;20012;-89
2021/08/25 06:51:02;;;;;;;18.08;14.85;;;14.00;99.90;;;;;;6188150;23;20020;-89
2021/08/25 06:53:30;;;;;;;18.23;14.13;;;14.10;99.90;;;;;;6157837;23;20051;-88
2021/08/25 06:55:55;;;;;;;19.63;13.05;;;14.30;99.90;;;;;;6181378;23;20013;-87
2021/08/25 06:58:24;;;;;;;16.50;10.68;;;14.40;99.90;;;;;;6149980;23;20042;-88
2021/08/25 07:00:50;;;;;;;13.55;10.02;;;14.50;99.90;;;;;;6159097;23;20016;-90
2021/08/25 07:03:16;;;;;;;15.65;9.27;;;14.60;99.90;;;;;;6150430;23;20018;-92
2021/08/25 07:05:42;;;;;;;11.73;7.68;;;14.70;99.90;;;;;;6150119;23;20059;-89
2021/08/25 07:08:08;;;;;;;9.55;6.25;;;14.80;99.90;;;;;;6151251;23;20035;-90
2021/08/25 07:10:33;;;;;;;11.30;7.40;;;14.90;99.90;;;;;;6151516;23;20017;-90
2021/08/25 07:12:59;;;;;;;11.27;6.57;;;15.10;99.90;;;;;;6173218;23;20008;-87
2021/08/25 07:15:25;;;;;;;7.45;4.63;;;15.20;99.90;;;;;;6153719;23;20064;-94
2021/08/25 07:17:51;;;;;;;8.45;4.38;;;15.30;99.90;;;;;;6180213;23;20056;-92
2021/08/25 07:20:17;;;;;;;6.30;4.85;;;15.50;99.90;;;;;;6176410;23;20027;-89
2021/08/25 07:22:42;;;;;;;7.53;4.47;;;15.60;99.90;;;;;;6178098;23;20012;-90
2021/08/25 07:25:09;;;;;;;6.38;3.72;;;15.70;99.90;;;;;;6199877;23;20016;-90
2021/08/25 07:27:36;;;;;;;6.63;3.83;;;15.80;99.90;;;;;;6176753;23;20015;-92
2021/08/25 07:30:03;;;;;;;5.47;3.22;;;15.90;99.90;;;;;;6206010;23;20063;-91
2021/08/25 07:32:29;;;;;;;7.68;3.40;;;15.90;99.90;;;;;;6176232;23;20063;-91
2021/08/25 07:34:54;;;;;;;8.70;3.33;;;16.00;99.90;;;;;;6157743;23;20008;-90
2021/08/25 07:37:20;;;;;;;5.90;3.60;;;16.20;99.90;;;;;;6203983;23;20035;-91
2021/08/25 07:39:46;;;;;;;9.90;3.75;;;16.20;99.90;;;;;;6177210;23;20012;-90
2021/08/25 07:42:12;;;;;;;9.38;3.30;;;16.30;99.90;;;;;;6147719;23;20027;-89
2021/08/25 07:44:37;;;;;;;5.95;3.03;;;16.40;99.90;;;;;;6146864;23;20019;-90
2021/08/25 07:47:03;;;;;;;6.15;2.63;;;16.40;99.90;;;;;;6150612;23;20023;-91
2021/08/25 07:49:30;;;;;;;6.43;2.95;;;16.50;99.90;;;;;;6155018;23;20544;-90
2021/08/25 07:51:59;;;;;;;6.20;2.78;;;16.60;99.90;;;;;;6158348;23;20560;-88
2021/08/25 07:54:25;;;;;;;7.22;2.92;;;16.60;99.90;;;;;;6174660;23;20016;-89
2021/08/25 07:56:50;;;;;;;8.95;3.22;;;16.70;99.90;;;;;;6181051;23;20072;-91
2021/08/25 07:59:16;;;;;;;5.68;2.90;;;16.80;99.90;;;;;;6158720;23;20054;-91
2021/08/25 08:01:42;;;;;;;8.13;3.60;;;16.80;99.90;;;;;;6160538;23;20060;-90
2021/08/25 08:04:08;;;;;;;8.88;3.55;;;16.90;99.90;;;;;;6175173;23;20016;-86
2021/08/25 08:06:34;;;;;;;7.88;3.38;;;16.90;99.90;;;;;;6156542;23;20012;-91
2021/08/25 08:08:59;;;;;;;5.63;2.72;;;17.00;99.90;;;;;;6150621;23;20023;-88
2021/08/25 08:11:25;;;;;;;5.88;2.15;;;17.00;99.90;;;;;;6179201;23;20020;-89
2021/08/25 08:13:51;;;;;;;5.80;2.35;;;17.00;99.90;;;;;;6157294;22;20059;-88
2021/08/25 08:16:19;;;;;;;3.38;1.83;;;17.10;99.90;;;;;;6152675;23;20310;-93
2021/08/25 08:18:57;;;;;;;4.65;2.10;;;17.20;99.70;;;;;;6165593;23;20508;-91
2021/08/25 08:21:26;;;;;;;6.50;2.00;;;17.20;99.70;;;;;;6193641;23;20016;-88
2021/08/25 08:23:52;;;;;;;5.47;2.03;;;17.30;99.20;;;;;;6205571;23;20000;-93
2021/08/25 08:26:18;;;;;;;7.50;1.90;;;17.30;99.20;;;;;;6208391;23;20016;-91
2021/08/25 08:28:46;;;;;;;5.38;2.75;;;17.30;99.00;;;;;;6197032;23;20020;-87
2021/08/25 08:31:12;;;;;;;5.25;1.90;;;17.30;98.90;;;;;;6203178;23;20000;-91
2021/08/25 08:33:39;;;;;;;5.75;2.10;;;17.20;98.80;;;;;;6197780;23;20065;-87
2021/08/25 08:36:05;;;;;;;5.70;1.83;;;17.20;98.80;;;;;;6194212;23;20016;-89
2021/08/25 08:38:32;;;;;;;5.32;1.95;;;17.20;98.80;;;;;;6174462;23;20004;-87
2021/08/25 08:40:58;;;;;;;6.50;2.15;;;17.20;98.80;;;;;;6169711;23;20028;-88
2021/08/25 08:43:24;;;;;;;4.60;1.85;;;17.30;98.80;;;;;;6167724;23;20023;-84
2021/08/25 08:45:50;;;;;;;5.07;1.60;;;17.40;98.30;;;;;;6141493;23;20012;-89
2021/08/25 08:48:25;;;;;;;3.30;1.63;;;17.40;98.00;;;;;;6162683;23;20013;-88
2021/08/25 08:50:51;;;;;;;2.92;1.77;;;17.40;98.10;;;;;;6190910;23;20457;-86
2021/08/25 08:53:17;;;;;;;5.75;1.80;;;17.50;97.80;;;;;;6144014;23;20098;-86
2021/08/25 08:55:44;;;;;;;6.65;1.63;;;17.50;97.70;;;;;;6161136;23;20012;-87
2021/08/25 08:58:09;;;;;;;2.95;1.55;;;17.60;97.60;;;;;;6183533;23;20061;-86
2021/08/25 09:00:36;;;;;;;2.45;1.50;;;17.70;97.40;;;;;;6158323;23;20468;-86
2021/08/25 09:03:02;;;;;;;2.83;1.60;;;17.80;97.10;;;;;;6183532;23;20015;-87
2021/08/25 09:05:33;;;;;;;5.05;1.60;;;17.80;96.90;;;;;;6182913;23;20027;-87
2021/08/25 09:08:02;;;;;;;4.72;1.90;;;17.90;96.60;;;;;;6159721;23;20012;-87
2021/08/25 09:10:38;;;;;;;4.22;1.75;;;18.00;96.60;;;;;;6208291;23;20051;-86
2021/08/25 09:13:10;;;;;;;6.10;2.10;;;18.00;96.30;;;;;;6183379;23;20043;-85
2021/08/25 09:15:42;;;;;;;3.40;1.83;;;18.00;95.80;;;;;;6185733;23;20054;-86
2021/08/25 09:18:15;;;;;;;2.25;1.67;;;17.90;95.70;;;;;;6163046;23;20082;-86
2021/08/25 09:20:48;;;;;;;3.50;2.20;;;18.00;95.70;;;;;;6186435;23;20318;-86
2021/08/25 09:23:30;;;;;;;4.05;2.03;;;18.00;95.60;;;;;;6194205;23;20023;-87
2021/08/25 09:26:02;;;;;;;4.60;2.00;;;18.00;95.60;;;;;;6162038;23;20115;-86
2021/08/25 09:28:31;;;;;;;5.20;1.95;;;18.00;95.60;;;;;;6184323;23;20247;-87
2021/08/25 09:30:58;;;;;;;3.42;2.08;;;17.90;95.80;;;;;;6185049;23;20019;-86
2021/08/25 09:33:30;;;;;;;4.00;2.08;;;17.90;95.80;;;;;;6184298;23;20019;-86
2021/08/25 09:36:04;;;;;;;5.80;2.13;;;18.00;95.90;;;;;;6184397;23;20012;-85
2021/08/25 09:38:31;;;;;;;5.18;1.75;;;18.10;95.60;;;;;;6184475;23;20009;-85
2021/08/25 09:41:09;;;;;;;3.60;1.60;;;18.10;95.70;;;;;;6161679;23;20016;-85
2021/08/25 09:43:40;;;;;;;4.05;1.52;;;18.30;95.30;;;;;;6184477;23;20016;-83
2021/08/25 09:46:17;;;;;;;2.67;1.80;;;18.40;95.00;;;;;;6185461;23;20361;-83
2021/08/25 09:48:55;;;;;;;5.32;1.70;;;18.40;95.00;;;;;;6185544;23;20012;-85
2021/08/25 09:51:24;;;;;;;6.43;1.80;;;18.50;95.10;;;;;;6209365;23;20637;-86
2021/08/25 09:54:02;;;;;;;4.07;2.22;;;18.70;94.80;;;;;;6212382;23;20347;-85
2021/08/25 09:56:33;;;;;;;4.03;1.75;;;18.70;94.80;;;;;;6185594;23;20238;-86
2021/08/25 09:59:07;;;;;;;4.47;1.63;;;18.80;94.30;;;;;;6186109;23;20097;-87
2021/08/25 10:01:34;;;;;;;3.63;1.77;;;18.80;93.80;;;;;;6184628;23;20094;-86
2021/08/25 10:04:04;;;;;;;3.33;1.83;;;18.80;94.00;;;;;;6159894;23;20015;-85
2021/08/25 10:06:30;;;;;;;4.22;1.70;;;18.80;93.70;;;;;;6184999;23;20012;-86
2021/08/25 10:08:57;;;;;;;5.38;1.75;;;18.80;93.70;;;;;;6160026;23;20403;-86
2021/08/25 10:11:30;;;;;;;4.13;1.55;;;18.80;93.50;;;;;;6184481;23;20332;-84
2021/08/25 10:13:58;;;;;;;2.75;1.42;;;18.80;93.30;;;;;;6184616;23;20437;-84
2021/08/25 10:16:38;;;;;;;4.10;1.80;;;18.70;93.50;;;;;;6162322;23;20564;-86
2021/08/25 10:19:41;;;;;;;5.25;1.52;;;18.70;93.30;;;;;;6185171;23;20016;-86
2021/08/25 10:22:15;;;;;;;2.47;1.42;;;18.60;93.60;;;;;;6184064;23;20016;-86
2021/08/25 10:25:07;;;;;;;2.75;1.60;;;18.50;93.20;;;;;;6184321;23;20024;-86
2021/08/25 10:27:36;;;;;;;4.47;1.40;;;18.40;93.20;;;;;;6185728;23;20019;-85
2021/08/25 10:30:04;;;;;;;3.05;1.48;;;18.40;93.80;;;;;;6135659;23;20020;-86
2021/08/25 10:32:38;;;;;;;3.70;1.20;;;18.40;94.10;;;;;;6183144;23;20349;-86
2021/08/25 10:35:21;;;;;;;2.22;1.02;;;18.40;94.30;;;;;;6160707;23;20091;-87
2021/08/25 10:37:48;;;;;;;2.03;1.30;;;18.40;94.30;;;;;;6188109;23;20032;-86
2021/08/25 10:40:17;;;;;;;3.33;1.30;;;18.40;94.30;;;;;;6184014;23;20012;-86
2021/08/25 10:42:49;;;;;;;4.20;1.40;;;18.50;94.30;;;;;;6184368;23;20094;-86
2021/08/25 10:45:17;;;;;;;3.97;0.82;;;18.70;94.20;;;;;;6184833;23;20012;-86
2021/08/25 10:48:00;;;;;;;2.83;0.80;;;18.70;93.70;;;;;;6185717;23;20009;-84
2021/08/25 10:50:54;;;;;;;1.58;0.65;;;18.70;93.50;;;;;;6160668;23;20059;-85
2021/08/25 10:53:29;;;;;;;3.20;0.85;;;18.60;93.20;;;;;;6179786;23;20513;-84
2021/08/25 10:56:31;;;;;;;1.40;0.70;;;18.50;92.90;;;;;;6234611;23;20016;-85
2021/08/25 10:59:04;;;;;;;1.88;0.90;;;18.50;93.10;;;;;;6122888;23;20280;-84
2021/08/25 11:01:44;;;;;;;3.08;0.80;;;18.50;92.90;;;;;;6184057;23;20016;-84
2021/08/25 11:04:22;;;;;;;2.92;0.80;;;18.60;93.00;;;;;;6183577;23;20523;-86
2021/08/25 11:07:04;;;;;;;0.63;0.50;;;18.80;92.70;;;;;;6183556;23;20047;-88
2021/08/25 11:09:31;;;;;;;1.27;0.50;;;18.90;92.50;;;;;;6184139;23;20319;-84
2021/08/25 11:11:58;;;;;;;1.10;0.40;;;19.00;92.60;;;;;;6209355;23;20016;-86
2021/08/25 11:14:32;;;;;;;1.45;0.52;;;19.10;92.70;;;;;;6184828;23;20070;-87
2021/08/25 11:17:05;;;;;;;1.02;0.60;;;19.00;92.60;;;;;;6184146;23;20150;-84
2021/08/25 11:19:33;;;;;;;0.60;0.50;;;18.90;92.70;;;;;;6209508;23;20012;-85
2021/08/25 11:22:00;;;;;;;0.60;0.50;;;18.90;92.90;;;;;;6203338;23;20024;-87
2021/08/25 11:24:35;;;;;;;1.08;0.55;;;18.80;92.90;;;;;;6199548;23;20536;-85
2021/08/25 11:27:02;;;;;;;1.42;0.70;;;18.80;93.20;;;;;;6183299;23;20217;-85
2021/08/25 11:29:28;;;;;;;0.65;0.47;;;18.90;93.20;;;;;;6183378;23;20020;-86
2021/08/25 11:31:54;;;;;;;1.52;0.50;;;18.90;92.50;;;;;;6184176;23;20161;-87
2021/08/25 11:34:25;;;;;;;0.75;0.40;;;19.00;92.80;;;;;;6158629;23;20019;-87
2021/08/25 11:37:05;;;;;;;0.98;0.50;;;19.00;92.50;;;;;;6160148;23;20015;-86
2021/08/25 11:39:32;;;;;;;2.17;0.60;;;18.90;92.40;;;;;;6183160;23;20260;-86
2021/08/25 11:41:58;;;;;;;2.45;0.50;;;19.00;92.60;;;;;;6184516;23;20493;-86
2021/08/25 11:44:42;;;;;;;0.70;0.43;;;18.90;92.40;;;;;;6158980;23;20019;-85
2021/08/25 11:47:13;;;;;;;2.35;0.70;;;19.00;92.10;;;;;;6183391;23;20018;-88
2021/08/25 11:49:39;;;;;;;1.95;0.90;;;19.00;92.30;;;;;;6160512;23;20365;-88
2021/08/25 11:52:08;;;;;;;0.95;0.60;;;19.10;92.40;;;;;;6158594;23;20319;-85
2021/08/25 11:54:34;;;;;;;0.90;0.70;;;19.10;92.10;;;;;;6183570;23;20008;-86
2021/08/25 11:57:00;;;;;;;4.03;1.00;;;19.20;91.80;;;;;;6159101;23;20012;-87
2021/08/25 11:59:26;;;;;;;1.90;0.65;;;19.10;91.90;;;;;;6157612;23;20015;-86
2021/08/25 12:02:03;;;;;;;1.88;0.63;;;19.20;92.00;;;;;;6158147;23;20022;-85
2021/08/25 12:04:29;;;;;;;2.00;0.60;;;19.30;92.20;;;;;;6185418;23;20122;-86
2021/08/25 12:06:55;;;;;;;1.23;0.60;;;19.30;91.60;;;;;;6182943;23;20089;-87
2021/08/25 12:09:32;;;;;;;2.55;0.80;;;19.30;91.80;;;;;;6159280;23;20016;-86
2021/08/25 12:11:58;;;;;;;0.98;0.80;;;19.30;91.40;;;;;;6183152;23;20013;-85
2021/08/25 12:14:24;;;;;;;1.55;0.70;;;19.30;91.40;;;;;;6209457;23;20008;-84
2021/08/25 12:17:05;;;;;;;1.00;0.80;;;19.20;91.00;;;;;;6133503;23;20014;-86
2021/08/25 12:19:34;;;;;;;0.93;0.57;;;19.10;90.70;;;;;;6184093;23;20008;-85
2021/08/25 12:22:25;;;;;;;1.65;0.90;;;19.10;91.00;;;;;;6182258;23;20071;-86
2021/08/25 12:24:52;;;;;;;2.25;0.80;;;19.00;91.40;;;;;;6184314;23;20027;-86
2021/08/25 12:27:18;;;;;;;0.75;0.70;;;18.90;91.60;;;;;;6157984;23;20020;-85
2021/08/25 12:29:44;;;;;;;0.85;0.63;;;18.80;91.90;;;;;;6158045;23;20466;-85
2021/08/25 12:32:12;;;;;;;2.17;0.90;;;18.80;92.30;;;;;;6133643;23;20331;-85
2021/08/25 12:35:00;;;;;;;2.83;0.82;;;18.70;92.50;;;;;;6183929;23;20339;-84
2021/08/25 12:37:48;;;;;;;1.27;0.80;;;18.70;92.50;;;;;;6182879;23;20465;-86
2021/08/25 12:40:16;;;;;;;2.70;0.60;;;18.80;92.20;;;;;;6182909;23;20008;-85